sensor_id;sensor_type;location;lat;lon;timestamp;pressure;altitude;pressure_sealevel;temperature;humidity
77799;BME280;66989;50.426;15.352;2024-01-06T00:00:43;97002.38;;;3.74;94.91
77799;BME280;66989;50.426;15.352;2024-01-06T00:03:10;97003.44;;;3.71;95.37
77799;BME280;66989;50.426;15.352;2024-01-06T00:05:36;96993.09;;;3.70;95.18
77799;BME280;66989;50.426;15.352;2024-01-06T00:08:01;97001.84;;;3.69;95.22
77799;BME280;66989;50.426;15.352;2024-01-06T00:10:26;96999.38;;;3.67;95.24
77799;BME280;66989;50.426;15.352;2024-01-06T00:12:52;97004.47;;;3.69;95.48
77799;BME280;66989;50.426;15.352;2024-01-06T00:15:17;97001.75;;;3.70;95.29
77799;BME280;66989;50.426;15.352;2024-01-06T00:17:43;97006.97;;;3.70;95.39
77799;BME280;66989;50.426;15.352;2024-01-06T00:20:08;97005.09;;;3.72;95.24
77799;BME280;66989;50.426;15.352;2024-01-06T00:22:34;97008.41;;;3.74;95.33
77799;BME280;66989;50.426;15.352;2024-01-06T00:25:00;97005.72;;;3.76;95.36
77799;BME280;66989;50.426;15.352;2024-01-06T00:27:25;97003.84;;;3.78;95.32
77799;BME280;66989;50.426;15.352;2024-01-06T00:29:51;96997.69;;;3.79;95.22
77799;BME280;66989;50.426;15.352;2024-01-06T00:32:16;97001.75;;;3.83;95.33
77799;BME280;66989;50.426;15.352;2024-01-06T00:34:42;97006.84;;;3.85;95.13
77799;BME280;66989;50.426;15.352;2024-01-06T00:37:07;97013.72;;;3.86;95.31
77799;BME280;66989;50.426;15.352;2024-01-06T00:39:32;97015.31;;;3.88;95.18
77799;BME280;66989;50.426;15.352;2024-01-06T00:41:58;97017.81;;;3.90;95.12
77799;BME280;66989;50.426;15.352;2024-01-06T00:44:23;97004.66;;;3.91;95.04
77799;BME280;66989;50.426;15.352;2024-01-06T00:46:48;97002.03;;;3.91;94.73
77799;BME280;66989;50.426;15.352;2024-01-06T00:49:14;97001.22;;;3.91;95.11
77799;BME280;66989;50.426;15.352;2024-01-06T00:51:39;96998.59;;;3.91;94.94
77799;BME280;66989;50.426;15.352;2024-01-06T00:54:05;96996.94;;;3.90;95.09
77799;BME280;66989;50.426;15.352;2024-01-06T00:56:30;96998.84;;;3.88;94.84
77799;BME280;66989;50.426;15.352;2024-01-06T00:58:55;97000.63;;;3.87;94.91
77799;BME280;66989;50.426;15.352;2024-01-06T01:01:21;97004.03;;;3.88;95.14
77799;BME280;66989;50.426;15.352;2024-01-06T01:03:46;96997.19;;;3.87;94.97
77799;BME280;66989;50.426;15.352;2024-01-06T01:06:12;96998.84;;;3.88;95.10
77799;BME280;66989;50.426;15.352;2024-01-06T01:08:37;97007.50;;;3.88;95.44
77799;BME280;66989;50.426;15.352;2024-01-06T01:11:03;97002.28;;;3.88;94.91
77799;BME280;66989;50.426;15.352;2024-01-06T01:13:28;96990.19;;;3.87;94.76
77799;BME280;66989;50.426;15.352;2024-01-06T01:15:54;96996.44;;;3.85;94.81
77799;BME280;66989;50.426;15.352;2024-01-06T01:18:19;97000.94;;;3.82;95.11
77799;BME280;66989;50.426;15.352;2024-01-06T01:20:44;96997.56;;;3.80;95.07
77799;BME280;66989;50.426;15.352;2024-01-06T01:23:10;97002.06;;;3.78;95.27
77799;BME280;66989;50.426;15.352;2024-01-06T01:25:35;97001.25;;;3.78;95.44
77799;BME280;66989;50.426;15.352;2024-01-06T01:28:00;97010.84;;;3.77;95.44
77799;BME280;66989;50.426;15.352;2024-01-06T01:30:27;97008.41;;;3.74;95.32
77799;BME280;66989;50.426;15.352;2024-01-06T01:32:52;97007.72;;;3.72;95.53
77799;BME280;66989;50.426;15.352;2024-01-06T01:35:18;97003.53;;;3.70;95.62
77799;BME280;66989;50.426;15.352;2024-01-06T01:37:43;97001.03;;;3.68;95.36
77799;BME280;66989;50.426;15.352;2024-01-06T01:40:09;97002.81;;;3.68;95.80
77799;BME280;66989;50.426;15.352;2024-01-06T01:42:34;97001.13;;;3.67;95.71
77799;BME280;66989;50.426;15.352;2024-01-06T01:45:00;97003.75;;;3.67;95.97
77799;BME280;66989;50.426;15.352;2024-01-06T01:47:26;96996.88;;;3.66;96.34
77799;BME280;66989;50.426;15.352;2024-01-06T01:49:53;97000.41;;;3.65;96.38
77799;BME280;66989;50.426;15.352;2024-01-06T01:52:19;97008.13;;;3.66;96.45
77799;BME280;66989;50.426;15.352;2024-01-06T01:54:45;97004.59;;;3.67;96.12
77799;BME280;66989;50.426;15.352;2024-01-06T01:57:12;97007.06;;;3.69;96.43
77799;BME280;66989;50.426;15.352;2024-01-06T01:59:39;97013.88;;;3.71;96.12
77799;BME280;66989;50.426;15.352;2024-01-06T02:02:06;97007.72;;;3.72;96.49
77799;BME280;66989;50.426;15.352;2024-01-06T02:04:31;97002.50;;;3.72;96.43
77799;BME280;66989;50.426;15.352;2024-01-06T02:06:57;97004.34;;;3.70;95.64
77799;BME280;66989;50.426;15.352;2024-01-06T02:09:22;97001.97;;;3.67;95.95
77799;BME280;66989;50.426;15.352;2024-01-06T02:11:52;96998.53;;;3.67;96.06
77799;BME280;66989;50.426;15.352;2024-01-06T02:14:17;97000.50;;;3.63;95.80
77799;BME280;66989;50.426;15.352;2024-01-06T02:16:43;97000.69;;;3.60;96.35
77799;BME280;66989;50.426;15.352;2024-01-06T02:19:10;97000.19;;;3.55;96.53
77799;BME280;66989;50.426;15.352;2024-01-06T02:21:41;97007.28;;;3.53;96.86
77799;BME280;66989;50.426;15.352;2024-01-06T02:24:06;97002.91;;;3.53;96.82
77799;BME280;66989;50.426;15.352;2024-01-06T02:26:32;97008.94;;;3.54;96.85
77799;BME280;66989;50.426;15.352;2024-01-06T02:28:57;97013.97;;;3.57;97.15
77799;BME280;66989;50.426;15.352;2024-01-06T02:31:23;97013.72;;;3.60;96.90
77799;BME280;66989;50.426;15.352;2024-01-06T02:33:48;97010.22;;;3.61;96.59
77799;BME280;66989;50.426;15.352;2024-01-06T02:36:13;97014.47;;;3.62;96.37
77799;BME280;66989;50.426;15.352;2024-01-06T02:38:38;97005.84;;;3.62;96.35
77799;BME280;66989;50.426;15.352;2024-01-06T02:41:04;96996.34;;;3.61;95.99
77799;BME280;66989;50.426;15.352;2024-01-06T02:43:29;97003.22;;;3.62;95.92
77799;BME280;66989;50.426;15.352;2024-01-06T02:45:55;97002.41;;;3.61;95.77
77799;BME280;66989;50.426;15.352;2024-01-06T02:48:20;97003.31;;;3.60;95.62
77799;BME280;66989;50.426;15.352;2024-01-06T02:50:45;97006.03;;;3.59;95.52
77799;BME280;66989;50.426;15.352;2024-01-06T02:53:11;97005.31;;;3.56;95.62
77799;BME280;66989;50.426;15.352;2024-01-06T02:55:38;97001.03;;;3.55;95.80
77799;BME280;66989;50.426;15.352;2024-01-06T02:58:03;96994.97;;;3.55;95.86
77799;BME280;66989;50.426;15.352;2024-01-06T03:00:29;97005.41;;;3.55;95.66
77799;BME280;66989;50.426;15.352;2024-01-06T03:02:54;97006.25;;;3.55;95.72
77799;BME280;66989;50.426;15.352;2024-01-06T03:05:19;97006.97;;;3.58;95.69
77799;BME280;66989;50.426;15.352;2024-01-06T03:07:45;97002.59;;;3.58;95.63
77799;BME280;66989;50.426;15.352;2024-01-06T03:10:10;97006.84;;;3.59;95.33
77799;BME280;66989;50.426;15.352;2024-01-06T03:12:36;97010.22;;;3.61;95.64
77799;BME280;66989;50.426;15.352;2024-01-06T03:15:01;97010.00;;;3.64;95.38
77799;BME280;66989;50.426;15.352;2024-01-06T03:17:26;97011.56;;;3.67;95.76
77799;BME280;66989;50.426;15.352;2024-01-06T03:19:53;97019.16;;;3.70;95.29
77799;BME280;66989;50.426;15.352;2024-01-06T03:22:19;97009.56;;;3.70;95.18
77799;BME280;66989;50.426;15.352;2024-01-06T03:24:44;97004.28;;;3.72;95.52
77799;BME280;66989;50.426;15.352;2024-01-06T03:27:10;97004.16;;;3.73;94.93
77799;BME280;66989;50.426;15.352;2024-01-06T03:29:35;97005.81;;;3.74;95.40
77799;BME280;66989;50.426;15.352;2024-01-06T03:32:00;97006.66;;;3.75;95.75
77799;BME280;66989;50.426;15.352;2024-01-06T03:34:26;97009.16;;;3.76;95.50
77799;BME280;66989;50.426;15.352;2024-01-06T03:36:51;97011.78;;;3.76;95.55
77799;BME280;66989;50.426;15.352;2024-01-06T03:39:16;97016.88;;;3.78;95.73
77799;BME280;66989;50.426;15.352;2024-01-06T03:41:42;97016.03;;;3.77;95.84
77799;BME280;66989;50.426;15.352;2024-01-06T03:44:07;97007.28;;;3.78;96.07
77799;BME280;66989;50.426;15.352;2024-01-06T03:46:34;97012.38;;;3.80;96.07
77799;BME280;66989;50.426;15.352;2024-01-06T03:49:01;97013.22;;;3.80;95.87
77799;BME280;66989;50.426;15.352;2024-01-06T03:51:27;97014.16;;;3.79;95.70
77799;BME280;66989;50.426;15.352;2024-01-06T03:53:53;97010.00;;;3.77;96.06
77799;BME280;66989;50.426;15.352;2024-01-06T03:56:20;97015.22;;;3.77;95.71
77799;BME280;66989;50.426;15.352;2024-01-06T03:58:46;97019.69;;;3.75;95.93
77799;BME280;66989;50.426;15.352;2024-01-06T04:01:12;97013.56;;;3.76;96.13
77799;BME280;66989;50.426;15.352;2024-01-06T04:03:39;97015.31;;;3.75;95.94
77799;BME280;66989;50.426;15.352;2024-01-06T04:06:08;97011.88;;;3.75;96.29
77799;BME280;66989;50.426;15.352;2024-01-06T04:08:33;97009.25;;;3.75;96.42
77799;BME280;66989;50.426;15.352;2024-01-06T04:10:59;97012.69;;;3.75;96.54
77799;BME280;66989;50.426;15.352;2024-01-06T04:13:24;97012.69;;;3.75;96.68
77799;BME280;66989;50.426;15.352;2024-01-06T04:15:50;97015.22;;;3.77;96.44
77799;BME280;66989;50.426;15.352;2024-01-06T04:18:16;97014.38;;;3.76;96.34
77799;BME280;66989;50.426;15.352;2024-01-06T04:20:41;97010.09;;;3.75;95.98
77799;BME280;66989;50.426;15.352;2024-01-06T04:23:06;97010.19;;;3.74;96.29
77799;BME280;66989;50.426;15.352;2024-01-06T04:25:32;97017.06;;;3.75;96.62
77799;BME280;66989;50.426;15.352;2024-01-06T04:27:57;97016.25;;;3.74;96.85
77799;BME280;66989;50.426;15.352;2024-01-06T04:30:22;97014.59;;;3.73;96.43
77799;BME280;66989;50.426;15.352;2024-01-06T04:32:49;97012.91;;;3.72;96.50
77799;BME280;66989;50.426;15.352;2024-01-06T04:35:15;97000.84;;;3.71;96.92
77799;BME280;66989;50.426;15.352;2024-01-06T04:37:40;97005.22;;;3.71;96.67
77799;BME280;66989;50.426;15.352;2024-01-06T04:40:06;97008.66;;;3.71;97.18
77799;BME280;66989;50.426;15.352;2024-01-06T04:42:33;97008.66;;;3.71;97.27
77799;BME280;66989;50.426;15.352;2024-01-06T04:44:58;97010.31;;;3.72;97.41
77799;BME280;66989;50.426;15.352;2024-01-06T04:47:24;97004.28;;;3.72;97.12
77799;BME280;66989;50.426;15.352;2024-01-06T04:49:51;97006.03;;;3.71;96.90
77799;BME280;66989;50.426;15.352;2024-01-06T04:52:18;97006.03;;;3.71;97.05
77799;BME280;66989;50.426;15.352;2024-01-06T04:54:43;97012.09;;;3.72;97.43
77799;BME280;66989;50.426;15.352;2024-01-06T04:57:09;97011.25;;;3.71;97.54
77799;BME280;66989;50.426;15.352;2024-01-06T04:59:34;97006.88;;;3.72;97.38
77799;BME280;66989;50.426;15.352;2024-01-06T05:01:59;97012.09;;;3.72;97.51
77799;BME280;66989;50.426;15.352;2024-01-06T05:04:25;97010.50;;;3.69;97.40
77799;BME280;66989;50.426;15.352;2024-01-06T05:06:51;97004.34;;;3.70;97.60
77799;BME280;66989;50.426;15.352;2024-01-06T05:09:17;96995.63;;;3.71;97.76
77799;BME280;66989;50.426;15.352;2024-01-06T05:11:45;96999.13;;;3.70;97.40
77799;BME280;66989;50.426;15.352;2024-01-06T05:14:11;96995.69;;;3.70;97.86
77799;BME280;66989;50.426;15.352;2024-01-06T05:16:37;97003.44;;;3.71;97.64
77799;BME280;66989;50.426;15.352;2024-01-06T05:19:02;96998.13;;;3.73;97.76
77799;BME280;66989;50.426;15.352;2024-01-06T05:21:28;97003.22;;;3.74;98.27
77799;BME280;66989;50.426;15.352;2024-01-06T05:23:54;97011.88;;;3.75;98.10
77799;BME280;66989;50.426;15.352;2024-01-06T05:26:19;97009.16;;;3.76;97.85
77799;BME280;66989;50.426;15.352;2024-01-06T05:28:45;97024.81;;;3.76;97.98
77799;BME280;66989;50.426;15.352;2024-01-06T05:31:10;97025.72;;;3.75;97.49
77799;BME280;66989;50.426;15.352;2024-01-06T05:33:35;97023.97;;;3.76;98.03
77799;BME280;66989;50.426;15.352;2024-01-06T05:36:01;97026.47;;;3.77;98.08
77799;BME280;66989;50.426;15.352;2024-01-06T05:38:27;97035.25;;;3.76;98.30
77799;BME280;66989;50.426;15.352;2024-01-06T05:40:52;97034.41;;;3.76;98.02
77799;BME280;66989;50.426;15.352;2024-01-06T05:43:18;97030.94;;;3.75;98.19
77799;BME280;66989;50.426;15.352;2024-01-06T05:45:43;97042.13;;;3.77;98.55
77799;BME280;66989;50.426;15.352;2024-01-06T05:48:09;97042.94;;;3.78;98.57
77799;BME280;66989;50.426;15.352;2024-01-06T05:50:35;97042.94;;;3.78;98.26
77799;BME280;66989;50.426;15.352;2024-01-06T05:53:00;97039.50;;;3.77;98.48
77799;BME280;66989;50.426;15.352;2024-01-06T05:55:26;97050.75;;;3.78;98.33
77799;BME280;66989;50.426;15.352;2024-01-06T05:57:51;97056.81;;;3.78;98.67
77799;BME280;66989;50.426;15.352;2024-01-06T06:00:17;97049.81;;;3.79;98.09
77799;BME280;66989;50.426;15.352;2024-01-06T06:02:42;97051.59;;;3.78;98.52
77799;BME280;66989;50.426;15.352;2024-01-06T06:05:07;97052.31;;;3.80;98.65
77799;BME280;66989;50.426;15.352;2024-01-06T06:07:33;97038.38;;;3.81;98.97
77799;BME280;66989;50.426;15.352;2024-01-06T06:10:07;97046.28;;;3.80;98.66
77799;BME280;66989;50.426;15.352;2024-01-06T06:12:33;97051.41;;;3.81;98.82
77799;BME280;66989;50.426;15.352;2024-01-06T06:14:59;97054.84;;;3.82;98.73
77799;BME280;66989;50.426;15.352;2024-01-06T06:17:24;97049.50;;;3.83;98.76
77799;BME280;66989;50.426;15.352;2024-01-06T06:19:50;97053.91;;;3.83;98.93
77799;BME280;66989;50.426;15.352;2024-01-06T06:22:16;97059.00;;;3.85;98.96
77799;BME280;66989;50.426;15.352;2024-01-06T06:24:41;97065.88;;;3.86;99.13
77799;BME280;66989;50.426;15.352;2024-01-06T06:27:07;97056.31;;;3.86;98.86
77799;BME280;66989;50.426;15.352;2024-01-06T06:29:32;97071.00;;;3.87;98.81
77799;BME280;66989;50.426;15.352;2024-01-06T06:31:58;97066.63;;;3.88;99.04
77799;BME280;66989;50.426;15.352;2024-01-06T06:34:23;97067.56;;;3.87;98.99
77799;BME280;66989;50.426;15.352;2024-01-06T06:36:48;97065.78;;;3.87;98.51
77799;BME280;66989;50.426;15.352;2024-01-06T06:39:14;97070.19;;;3.87;98.75
77799;BME280;66989;50.426;15.352;2024-01-06T06:41:39;97080.59;;;3.87;98.56
77799;BME280;66989;50.426;15.352;2024-01-06T06:44:04;97085.06;;;3.85;99.06
77799;BME280;66989;50.426;15.352;2024-01-06T06:46:30;97084.25;;;3.84;98.92
77799;BME280;66989;50.426;15.352;2024-01-06T06:48:58;97090.41;;;3.83;99.00
77799;BME280;66989;50.426;15.352;2024-01-06T06:51:23;97087.91;;;3.81;98.93
77799;BME280;66989;50.426;15.352;2024-01-06T06:53:52;97092.47;;;3.78;98.63
77799;BME280;66989;50.426;15.352;2024-01-06T06:56:18;97095.28;;;3.75;98.91
77799;BME280;66989;50.426;15.352;2024-01-06T06:58:44;97105.09;;;3.71;99.09
77799;BME280;66989;50.426;15.352;2024-01-06T07:01:10;97107.19;;;3.66;99.32
77799;BME280;66989;50.426;15.352;2024-01-06T07:03:35;97102.16;;;3.63;99.48
77799;BME280;66989;50.426;15.352;2024-01-06T07:06:02;97112.78;;;3.60;99.64
77799;BME280;66989;50.426;15.352;2024-01-06T07:08:28;97115.38;;;3.60;100.00
77799;BME280;66989;50.426;15.352;2024-01-06T07:10:53;97114.66;;;3.58;100.00
77799;BME280;66989;50.426;15.352;2024-01-06T07:13:18;97119.88;;;3.58;100.00
77799;BME280;66989;50.426;15.352;2024-01-06T07:15:44;97117.16;;;3.60;100.00
77799;BME280;66989;50.426;15.352;2024-01-06T07:18:10;97118.84;;;3.61;100.00
77799;BME280;66989;50.426;15.352;2024-01-06T07:20:35;97116.97;;;3.63;100.00
77799;BME280;66989;50.426;15.352;2024-01-06T07:23:00;97119.44;;;3.64;100.00
77799;BME280;66989;50.426;15.352;2024-01-06T07:25:28;97125.50;;;3.65;100.00
77799;BME280;66989;50.426;15.352;2024-01-06T07:27:53;97129.81;;;3.66;100.00
77799;BME280;66989;50.426;15.352;2024-01-06T07:30:18;97130.63;;;3.66;100.00
77799;BME280;66989;50.426;15.352;2024-01-06T07:32:44;97129.69;;;3.67;100.00
77799;BME280;66989;50.426;15.352;2024-01-06T07:35:09;97128.75;;;3.68;100.00
77799;BME280;66989;50.426;15.352;2024-01-06T07:37:34;97133.97;;;3.68;100.00
77799;BME280;66989;50.426;15.352;2024-01-06T07:40:00;97135.63;;;3.69;100.00
77799;BME280;66989;50.426;15.352;2024-01-06T07:42:25;97140.75;;;3.71;100.00
77799;BME280;66989;50.426;15.352;2024-01-06T07:44:52;97135.53;;;3.71;100.00
77799;BME280;66989;50.426;15.352;2024-01-06T07:47:17;97144.19;;;3.71;100.00
77799;BME280;66989;50.426;15.352;2024-01-06T07:49:42;97148.47;;;3.72;100.00
77799;BME280;66989;50.426;15.352;2024-01-06T07:52:08;97152.03;;;3.71;100.00
77799;BME280;66989;50.426;15.352;2024-01-06T07:54:33;97156.19;;;3.74;100.00
77799;BME280;66989;50.426;15.352;2024-01-06T07:56:58;97154.41;;;3.74;100.00
77799;BME280;66989;50.426;15.352;2024-01-06T07:59:24;97153.47;;;3.75;100.00
77799;BME280;66989;50.426;15.352;2024-01-06T08:01:49;97156.81;;;3.77;100.00
77799;BME280;66989;50.426;15.352;2024-01-06T08:04:15;97161.03;;;3.93;100.00
77799;BME280;66989;50.426;15.352;2024-01-06T08:06:41;97166.03;;;4.08;100.00
77799;BME280;66989;50.426;15.352;2024-01-06T08:09:06;97164.59;;;4.17;100.00
77799;BME280;66989;50.426;15.352;2024-01-06T08:11:31;97170.53;;;4.19;100.00
77799;BME280;66989;50.426;15.352;2024-01-06T08:13:57;97175.63;;;4.21;100.00
77799;BME280;66989;50.426;15.352;2024-01-06T08:16:22;97176.28;;;4.24;100.00
77799;BME280;66989;50.426;15.352;2024-01-06T08:18:47;97175.44;;;4.24;100.00
77799;BME280;66989;50.426;15.352;2024-01-06T08:21:13;97167.50;;;4.25;100.00
77799;BME280;66989;50.426;15.352;2024-01-06T08:23:38;97176.69;;;4.31;100.00
77799;BME280;66989;50.426;15.352;2024-01-06T08:26:04;97177.22;;;4.36;100.00
77799;BME280;66989;50.426;15.352;2024-01-06T08:28:30;97179.41;;;4.42;100.00
77799;BME280;66989;50.426;15.352;2024-01-06T08:30:55;97179.84;;;4.49;100.00
77799;BME280;66989;50.426;15.352;2024-01-06T08:33:21;97185.56;;;4.54;100.00
77799;BME280;66989;50.426;15.352;2024-01-06T08:35:46;97186.81;;;4.61;100.00
77799;BME280;66989;50.426;15.352;2024-01-06T08:38:12;97186.38;;;4.67;100.00
77799;BME280;66989;50.426;15.352;2024-01-06T08:40:37;97188.69;;;4.72;100.00
77799;BME280;66989;50.426;15.352;2024-01-06T08:43:03;97188.34;;;4.76;99.95
77799;BME280;66989;50.426;15.352;2024-01-06T08:45:28;97183.66;;;4.81;99.63
77799;BME280;66989;50.426;15.352;2024-01-06T08:47:54;97185.13;;;4.85;99.96
77799;BME280;66989;50.426;15.352;2024-01-06T08:50:20;97182.06;;;4.92;99.56
77799;BME280;66989;50.426;15.352;2024-01-06T08:52:45;97191.13;;;4.99;99.47
77799;BME280;66989;50.426;15.352;2024-01-06T08:55:11;97191.56;;;5.05;99.11
77799;BME280;66989;50.426;15.352;2024-01-06T08:57:36;97187.75;;;5.09;98.98
77799;BME280;66989;50.426;15.352;2024-01-06T09:00:03;97190.78;;;5.16;98.94
77799;BME280;66989;50.426;15.352;2024-01-06T09:02:29;97202.66;;;5.20;98.25
77799;BME280;66989;50.426;15.352;2024-01-06T09:04:54;97201.31;;;5.27;97.98
77799;BME280;66989;50.426;15.352;2024-01-06T09:07:19;97204.56;;;5.31;97.51
77799;BME280;66989;50.426;15.352;2024-01-06T09:09:45;97198.88;;;5.37;97.05
77799;BME280;66989;50.426;15.352;2024-01-06T09:12:10;97202.09;;;5.40;97.02
77799;BME280;66989;50.426;15.352;2024-01-06T09:14:35;97201.88;;;5.44;96.88
77799;BME280;66989;50.426;15.352;2024-01-06T09:17:01;97199.06;;;5.47;96.40
77799;BME280;66989;50.426;15.352;2024-01-06T09:19:26;97202.25;;;5.50;96.24
77799;BME280;66989;50.426;15.352;2024-01-06T09:21:53;97203.72;;;5.54;96.16
77799;BME280;66989;50.426;15.352;2024-01-06T09:24:19;97206.22;;;5.56;95.83
77799;BME280;66989;50.426;15.352;2024-01-06T09:26:45;97210.41;;;5.58;96.11
77799;BME280;66989;50.426;15.352;2024-01-06T09:29:10;97205.66;;;5.63;96.45
77799;BME280;66989;50.426;15.352;2024-01-06T09:31:36;97208.91;;;5.67;96.03
77799;BME280;66989;50.426;15.352;2024-01-06T09:34:02;97207.72;;;5.71;96.10
77799;BME280;66989;50.426;15.352;2024-01-06T09:36:28;97214.50;;;5.74;96.03
77799;BME280;66989;50.426;15.352;2024-01-06T09:38:53;97213.44;;;5.76;95.92
77799;BME280;66989;50.426;15.352;2024-01-06T09:41:18;97211.66;;;5.77;95.24
77799;BME280;66989;50.426;15.352;2024-01-06T09:43:45;97213.22;;;5.79;95.46
77799;BME280;66989;50.426;15.352;2024-01-06T09:46:25;97205.13;;;5.82;95.30
77799;BME280;66989;50.426;15.352;2024-01-06T09:48:52;97203.97;;;5.86;95.20
77799;BME280;66989;50.426;15.352;2024-01-06T09:51:19;97204.47;;;5.91;95.25
77799;BME280;66989;50.426;15.352;2024-01-06T09:53:59;97210.94;;;5.99;95.18
77799;BME280;66989;50.426;15.352;2024-01-06T09:56:26;97209.53;;;6.06;94.92
77799;BME280;66989;50.426;15.352;2024-01-06T09:58:53;97201.22;;;6.12;94.60
77799;BME280;66989;50.426;15.352;2024-01-06T10:01:19;97207.88;;;6.16;94.68
77799;BME280;66989;50.426;15.352;2024-01-06T10:03:44;97213.03;;;6.29;95.72
77799;BME280;66989;50.426;15.352;2024-01-06T10:06:14;97208.69;;;6.52;98.06
77799;BME280;66989;50.426;15.352;2024-01-06T10:08:42;97206.78;;;6.65;97.51
77799;BME280;66989;50.426;15.352;2024-01-06T10:11:08;97199.66;;;6.78;96.97
77799;BME280;66989;50.426;15.352;2024-01-06T10:13:34;97209.06;;;6.81;94.95
77799;BME280;66989;50.426;15.352;2024-01-06T10:16:00;97209.44;;;6.87;94.22
77799;BME280;66989;50.426;15.352;2024-01-06T10:18:27;97202.88;;;6.93;93.16
77799;BME280;66989;50.426;15.352;2024-01-06T10:20:55;97198.72;;;7.02;92.13
77799;BME280;66989;50.426;15.352;2024-01-06T10:23:22;97197.25;;;7.09;91.15
77799;BME280;66989;50.426;15.352;2024-01-06T10:25:51;97203.94;;;7.13;91.04
77799;BME280;66989;50.426;15.352;2024-01-06T10:28:17;97201.53;;;7.21;90.95
77799;BME280;66989;50.426;15.352;2024-01-06T10:30:42;97199.50;;;7.25;90.63
77799;BME280;66989;50.426;15.352;2024-01-06T10:33:09;97201.78;;;7.29;89.35
77799;BME280;66989;50.426;15.352;2024-01-06T10:35:36;97199.00;;;7.42;89.77
77799;BME280;66989;50.426;15.352;2024-01-06T10:38:01;97198.50;;;7.59;89.87
77799;BME280;66989;50.426;15.352;2024-01-06T10:40:27;97198.16;;;7.85;88.71
77799;BME280;66989;50.426;15.352;2024-01-06T10:42:53;97203.56;;;8.15;88.00
77799;BME280;66989;50.426;15.352;2024-01-06T10:45:21;97200.13;;;8.45;86.18
77799;BME280;66989;50.426;15.352;2024-01-06T10:47:48;97202.75;;;8.66;85.71
77799;BME280;66989;50.426;15.352;2024-01-06T10:50:14;97196.94;;;8.63;83.44
77799;BME280;66989;50.426;15.352;2024-01-06T10:52:43;97197.63;;;8.65;84.07
77799;BME280;66989;50.426;15.352;2024-01-06T10:55:09;97197.75;;;8.63;83.05
77799;BME280;66989;50.426;15.352;2024-01-06T10:57:37;97191.03;;;8.49;82.75
77799;BME280;66989;50.426;15.352;2024-01-06T11:00:03;97189.91;;;8.42;83.74
77799;BME280;66989;50.426;15.352;2024-01-06T11:02:31;97184.22;;;8.37;84.16
77799;BME280;66989;50.426;15.352;2024-01-06T11:04:56;97188.41;;;8.29;84.88
77799;BME280;66989;50.426;15.352;2024-01-06T11:07:24;97190.88;;;8.20;85.05
77799;BME280;66989;50.426;15.352;2024-01-06T11:12:19;97184.28;;;8.26;85.73
77799;BME280;66989;50.426;15.352;2024-01-06T11:14:44;97175.44;;;8.27;85.78
77799;BME280;66989;50.426;15.352;2024-01-06T11:17:11;97181.88;;;8.44;87.68
77799;BME280;66989;50.426;15.352;2024-01-06T11:19:43;97180.00;;;8.56;88.04
77799;BME280;66989;50.426;15.352;2024-01-06T11:22:30;97184.56;;;8.53;86.64
77799;BME280;66989;50.426;15.352;2024-01-06T11:25:08;97176.94;;;8.50;86.15
77799;BME280;66989;50.426;15.352;2024-01-06T11:27:34;97179.25;;;8.44;85.87
77799;BME280;66989;50.426;15.352;2024-01-06T11:30:03;97179.06;;;8.36;85.86
77799;BME280;66989;50.426;15.352;2024-01-06T11:32:34;97178.75;;;8.29;85.83
77799;BME280;66989;50.426;15.352;2024-01-06T11:35:14;97185.41;;;8.12;85.41
77799;BME280;66989;50.426;15.352;2024-01-06T11:43:07;97170.97;;;7.86;88.58
77799;BME280;66989;50.426;15.352;2024-01-06T11:45:34;97181.13;;;7.79;87.96
77799;BME280;66989;50.426;15.352;2024-01-06T11:48:06;97180.91;;;7.71;87.06
77799;BME280;66989;50.426;15.352;2024-01-06T11:50:37;97188.31;;;7.66;87.77
77799;BME280;66989;50.426;15.352;2024-01-06T11:53:03;97193.59;;;7.55;87.90
77799;BME280;66989;50.426;15.352;2024-01-06T11:55:29;97195.03;;;7.47;88.55
77799;BME280;66989;50.426;15.352;2024-01-06T11:57:58;97189.72;;;7.38;88.53
77799;BME280;66989;50.426;15.352;2024-01-06T12:00:30;97181.25;;;7.34;88.90
77799;BME280;66989;50.426;15.352;2024-01-06T12:02:56;97185.31;;;7.27;89.17
77799;BME280;66989;50.426;15.352;2024-01-06T12:05:22;97184.75;;;7.23;88.83
77799;BME280;66989;50.426;15.352;2024-01-06T12:07:57;97188.69;;;7.18;88.69
77799;BME280;66989;50.426;15.352;2024-01-06T12:10:22;97186.41;;;7.13;88.75
77799;BME280;66989;50.426;15.352;2024-01-06T12:12:55;97182.50;;;7.08;88.83
77799;BME280;66989;50.426;15.352;2024-01-06T12:15:21;97184.75;;;7.01;88.96
77799;BME280;66989;50.426;15.352;2024-01-06T12:17:46;97186.06;;;6.95;89.07
77799;BME280;66989;50.426;15.352;2024-01-06T12:20:12;97184.88;;;7.00;90.77
77799;BME280;66989;50.426;15.352;2024-01-06T12:22:37;97183.94;;;7.12;92.53
77799;BME280;66989;50.426;15.352;2024-01-06T12:25:04;97183.19;;;7.21;92.89
77799;BME280;66989;50.426;15.352;2024-01-06T12:27:32;97185.09;;;7.19;91.61
77799;BME280;66989;50.426;15.352;2024-01-06T12:29:58;97180.22;;;7.14;90.86
77799;BME280;66989;50.426;15.352;2024-01-06T12:32:23;97180.56;;;7.10;90.97
77799;BME280;66989;50.426;15.352;2024-01-06T12:34:50;97183.81;;;7.02;90.49
77799;BME280;66989;50.426;15.352;2024-01-06T12:37:16;97179.16;;;6.94;90.29
77799;BME280;66989;50.426;15.352;2024-01-06T12:39:42;97185.50;;;6.92;90.90
77799;BME280;66989;50.426;15.352;2024-01-06T12:42:10;97188.81;;;6.94;91.80
77799;BME280;66989;50.426;15.352;2024-01-06T12:44:36;97185.00;;;6.98;92.80
77799;BME280;66989;50.426;15.352;2024-01-06T12:47:04;97190.13;;;7.00;92.90
77799;BME280;66989;50.426;15.352;2024-01-06T12:49:30;97184.88;;;7.00;92.12
77799;BME280;66989;50.426;15.352;2024-01-06T12:51:55;97181.66;;;6.96;91.37
77799;BME280;66989;50.426;15.352;2024-01-06T12:54:20;97178.56;;;6.91;91.35
77799;BME280;66989;50.426;15.352;2024-01-06T12:56:46;97186.81;;;6.86;91.08
77799;BME280;66989;50.426;15.352;2024-01-06T12:59:11;97188.69;;;6.84;91.21
77799;BME280;66989;50.426;15.352;2024-01-06T13:01:37;97181.31;;;6.78;90.89